sensor_id;sensor_type;location;lat;lon;timestamp;P1;durP1;ratioP1;P2;durP2;ratioP2
48052;SDS011;33824;51.600;5.718;2023-05-20T00:00:50;2.88;;;1.08;;
48052;SDS011;33824;51.600;5.718;2023-05-20T00:03:18;1.50;;;1.10;;
48052;SDS011;33824;51.600;5.718;2023-05-20T00:05:47;5.00;;;1.25;;
48052;SDS011;33824;51.600;5.718;2023-05-20T00:08:12;4.72;;;1.08;;
48052;SDS011;33824;51.600;5.718;2023-05-20T00:10:39;3.13;;;1.10;;
48052;SDS011;33824;51.600;5.718;2023-05-20T00:13:07;3.05;;;1.27;;
48052;SDS011;33824;51.600;5.718;2023-05-20T00:15:33;3.42;;;1.33;;
48052;SDS011;33824;51.600;5.718;2023-05-20T00:18:00;2.03;;;1.00;;
48052;SDS011;33824;51.600;5.718;2023-05-20T00:20:26;3.55;;;1.08;;
48052;SDS011;33824;51.600;5.718;2023-05-20T00:22:52;1.15;;;0.90;;
48052;SDS011;33824;51.600;5.718;2023-05-20T00:25:17;2.78;;;1.20;;
48052;SDS011;33824;51.600;5.718;2023-05-20T00:27:43;3.35;;;1.08;;
48052;SDS011;33824;51.600;5.718;2023-05-20T00:30:09;4.22;;;1.23;;
48052;SDS011;33824;51.600;5.718;2023-05-20T00:32:35;3.90;;;1.05;;
48052;SDS011;33824;51.600;5.718;2023-05-20T00:35:01;2.22;;;1.20;;
48052;SDS011;33824;51.600;5.718;2023-05-20T00:37:27;1.98;;;1.00;;
48052;SDS011;33824;51.600;5.718;2023-05-20T00:39:52;2.38;;;1.20;;
48052;SDS011;33824;51.600;5.718;2023-05-20T00:42:21;2.35;;;1.17;;
48052;SDS011;33824;51.600;5.718;2023-05-20T00:44:51;3.53;;;1.45;;
48052;SDS011;33824;51.600;5.718;2023-05-20T00:47:17;4.22;;;1.00;;
48052;SDS011;33824;51.600;5.718;2023-05-20T00:49:45;2.33;;;1.50;;
48052;SDS011;33824;51.600;5.718;2023-05-20T00:52:13;3.30;;;1.05;;
48052;SDS011;33824;51.600;5.718;2023-05-20T00:54:40;1.83;;;1.38;;
48052;SDS011;33824;51.600;5.718;2023-05-20T00:57:06;2.47;;;1.25;;
48052;SDS011;33824;51.600;5.718;2023-05-20T00:59:35;5.20;;;1.27;;
48052;SDS011;33824;51.600;5.718;2023-05-20T01:02:02;3.30;;;1.33;;
48052;SDS011;33824;51.600;5.718;2023-05-20T01:04:29;4.78;;;1.30;;
48052;SDS011;33824;51.600;5.718;2023-05-20T01:06:55;3.85;;;2.25;;
48052;SDS011;33824;51.600;5.718;2023-05-20T01:09:25;1.30;;;0.93;;
48052;SDS011;33824;51.600;5.718;2023-05-20T01:11:55;4.72;;;1.30;;
48052;SDS011;33824;51.600;5.718;2023-05-20T01:14:36;5.18;;;1.95;;
48052;SDS011;33824;51.600;5.718;2023-05-20T01:17:07;1.90;;;1.08;;
48052;SDS011;33824;51.600;5.718;2023-05-20T01:19:40;4.85;;;1.30;;
48052;SDS011;33824;51.600;5.718;2023-05-20T01:22:10;3.10;;;1.30;;
48052;SDS011;33824;51.600;5.718;2023-05-20T01:24:41;6.82;;;1.70;;
48052;SDS011;33824;51.600;5.718;2023-05-20T01:27:08;5.05;;;1.50;;
48052;SDS011;33824;51.600;5.718;2023-05-20T01:29:36;3.95;;;1.40;;
48052;SDS011;33824;51.600;5.718;2023-05-20T01:32:03;5.18;;;1.52;;
48052;SDS011;33824;51.600;5.718;2023-05-20T01:34:32;2.03;;;1.20;;
48052;SDS011;33824;51.600;5.718;2023-05-20T01:37:00;3.80;;;1.42;;
48052;SDS011;33824;51.600;5.718;2023-05-20T01:39:27;5.55;;;1.45;;
48052;SDS011;33824;51.600;5.718;2023-05-20T01:41:55;1.90;;;1.02;;
48052;SDS011;33824;51.600;5.718;2023-05-20T01:44:21;4.15;;;1.55;;
48052;SDS011;33824;51.600;5.718;2023-05-20T01:46:49;3.28;;;1.30;;
48052;SDS011;33824;51.600;5.718;2023-05-20T01:49:15;2.83;;;1.58;;
48052;SDS011;33824;51.600;5.718;2023-05-20T01:51:40;4.20;;;1.63;;
48052;SDS011;33824;51.600;5.718;2023-05-20T01:54:06;3.60;;;1.13;;
48052;SDS011;33824;51.600;5.718;2023-05-20T01:56:32;3.10;;;1.20;;
48052;SDS011;33824;51.600;5.718;2023-05-20T01:58:59;4.05;;;1.45;;
48052;SDS011;33824;51.600;5.718;2023-05-20T02:01:24;2.70;;;1.10;;
48052;SDS011;33824;51.600;5.718;2023-05-20T02:03:50;5.05;;;1.65;;
48052;SDS011;33824;51.600;5.718;2023-05-20T02:06:15;4.35;;;1.42;;
48052;SDS011;33824;51.600;5.718;2023-05-20T02:08:41;1.55;;;1.27;;
48052;SDS011;33824;51.600;5.718;2023-05-20T02:11:07;1.83;;;1.00;;
48052;SDS011;33824;51.600;5.718;2023-05-20T02:13:32;4.85;;;1.38;;
48052;SDS011;33824;51.600;5.718;2023-05-20T02:15:58;2.88;;;1.63;;
48052;SDS011;33824;51.600;5.718;2023-05-20T02:18:23;4.63;;;1.73;;
48052;SDS011;33824;51.600;5.718;2023-05-20T02:20:50;2.72;;;1.35;;
48052;SDS011;33824;51.600;5.718;2023-05-20T02:23:16;2.25;;;1.20;;
48052;SDS011;33824;51.600;5.718;2023-05-20T02:25:42;2.80;;;1.30;;
48052;SDS011;33824;51.600;5.718;2023-05-20T02:28:08;3.03;;;1.48;;
48052;SDS011;33824;51.600;5.718;2023-05-20T02:30:37;5.53;;;1.17;;
48052;SDS011;33824;51.600;5.718;2023-05-20T02:33:03;2.45;;;1.50;;
48052;SDS011;33824;51.600;5.718;2023-05-20T02:35:28;3.25;;;1.48;;
48052;SDS011;33824;51.600;5.718;2023-05-20T02:37:54;3.67;;;1.35;;
48052;SDS011;33824;51.600;5.718;2023-05-20T02:40:20;5.63;;;1.88;;
48052;SDS011;33824;51.600;5.718;2023-05-20T02:42:45;4.93;;;2.05;;
48052;SDS011;33824;51.600;5.718;2023-05-20T02:45:11;5.03;;;2.33;;
48052;SDS011;33824;51.600;5.718;2023-05-20T02:47:36;8.18;;;2.80;;
48052;SDS011;33824;51.600;5.718;2023-05-20T02:50:02;4.80;;;2.15;;
48052;SDS011;33824;51.600;5.718;2023-05-20T02:52:28;3.80;;;2.03;;
48052;SDS011;33824;51.600;5.718;2023-05-20T02:54:54;3.83;;;2.10;;
48052;SDS011;33824;51.600;5.718;2023-05-20T02:57:20;3.03;;;1.65;;
48052;SDS011;33824;51.600;5.718;2023-05-20T02:59:46;4.78;;;1.55;;
48052;SDS011;33824;51.600;5.718;2023-05-20T03:02:12;5.00;;;1.40;;
48052;SDS011;33824;51.600;5.718;2023-05-20T03:04:37;3.55;;;1.40;;
48052;SDS011;33824;51.600;5.718;2023-05-20T03:07:05;3.67;;;1.83;;
48052;SDS011;33824;51.600;5.718;2023-05-20T03:09:34;2.70;;;1.40;;
48052;SDS011;33824;51.600;5.718;2023-05-20T03:12:00;4.13;;;1.60;;
48052;SDS011;33824;51.600;5.718;2023-05-20T03:14:25;4.95;;;2.13;;
48052;SDS011;33824;51.600;5.718;2023-05-20T03:16:51;4.53;;;1.58;;
48052;SDS011;33824;51.600;5.718;2023-05-20T03:19:19;3.33;;;1.42;;
48052;SDS011;33824;51.600;5.718;2023-05-20T03:21:45;4.78;;;1.92;;
48052;SDS011;33824;51.600;5.718;2023-05-20T03:24:10;4.32;;;1.40;;
48052;SDS011;33824;51.600;5.718;2023-05-20T03:26:36;2.38;;;1.50;;
48052;SDS011;33824;51.600;5.718;2023-05-20T03:29:07;4.40;;;1.70;;
48052;SDS011;33824;51.600;5.718;2023-05-20T03:31:33;2.28;;;1.40;;
48052;SDS011;33824;51.600;5.718;2023-05-20T03:33:58;3.08;;;1.30;;
48052;SDS011;33824;51.600;5.718;2023-05-20T03:36:24;4.90;;;1.83;;
48052;SDS011;33824;51.600;5.718;2023-05-20T03:38:50;2.72;;;1.67;;
48052;SDS011;33824;51.600;5.718;2023-05-20T03:41:15;2.53;;;1.45;;
48052;SDS011;33824;51.600;5.718;2023-05-20T03:43:41;2.45;;;1.30;;
48052;SDS011;33824;51.600;5.718;2023-05-20T03:46:06;2.58;;;1.20;;
48052;SDS011;33824;51.600;5.718;2023-05-20T03:48:32;1.95;;;1.40;;
48052;SDS011;33824;51.600;5.718;2023-05-20T03:50:57;3.55;;;1.30;;
48052;SDS011;33824;51.600;5.718;2023-05-20T03:53:23;4.10;;;1.33;;
48052;SDS011;33824;51.600;5.718;2023-05-20T03:55:48;4.60;;;2.05;;
48052;SDS011;33824;51.600;5.718;2023-05-20T03:58:14;4.63;;;1.50;;
48052;SDS011;33824;51.600;5.718;2023-05-20T04:00:40;3.50;;;1.45;;
48052;SDS011;33824;51.600;5.718;2023-05-20T04:03:06;2.92;;;1.60;;
48052;SDS011;33824;51.600;5.718;2023-05-20T04:05:31;3.95;;;1.55;;
48052;SDS011;33824;51.600;5.718;2023-05-20T04:07:57;3.53;;;1.17;;
48052;SDS011;33824;51.600;5.718;2023-05-20T04:10:22;2.88;;;1.40;;
48052;SDS011;33824;51.600;5.718;2023-05-20T04:12:48;4.38;;;1.63;;
48052;SDS011;33824;51.600;5.718;2023-05-20T04:15:14;4.20;;;1.73;;
48052;SDS011;33824;51.600;5.718;2023-05-20T04:17:40;2.33;;;1.30;;
48052;SDS011;33824;51.600;5.718;2023-05-20T04:20:06;3.15;;;1.10;;
48052;SDS011;33824;51.600;5.718;2023-05-20T04:22:32;3.17;;;1.60;;
48052;SDS011;33824;51.600;5.718;2023-05-20T04:24:58;2.38;;;1.52;;
48052;SDS011;33824;51.600;5.718;2023-05-20T04:27:24;3.20;;;1.10;;
48052;SDS011;33824;51.600;5.718;2023-05-20T04:29:50;3.72;;;1.38;;
48052;SDS011;33824;51.600;5.718;2023-05-20T04:32:17;4.60;;;1.70;;
48052;SDS011;33824;51.600;5.718;2023-05-20T04:34:44;4.43;;;1.48;;
48052;SDS011;33824;51.600;5.718;2023-05-20T04:37:10;6.53;;;1.80;;
48052;SDS011;33824;51.600;5.718;2023-05-20T04:39:37;5.68;;;2.42;;
48052;SDS011;33824;51.600;5.718;2023-05-20T04:42:03;9.10;;;2.55;;
48052;SDS011;33824;51.600;5.718;2023-05-20T04:44:29;7.70;;;1.98;;
48052;SDS011;33824;51.600;5.718;2023-05-20T04:46:58;3.08;;;2.22;;
48052;SDS011;33824;51.600;5.718;2023-05-20T04:49:24;3.03;;;1.45;;
48052;SDS011;33824;51.600;5.718;2023-05-20T04:51:50;3.42;;;1.48;;
48052;SDS011;33824;51.600;5.718;2023-05-20T04:54:16;2.58;;;1.38;;
48052;SDS011;33824;51.600;5.718;2023-05-20T04:56:44;5.75;;;1.85;;
48052;SDS011;33824;51.600;5.718;2023-05-20T04:59:11;2.90;;;1.30;;
48052;SDS011;33824;51.600;5.718;2023-05-20T05:01:37;5.28;;;1.73;;
48052;SDS011;33824;51.600;5.718;2023-05-20T05:04:02;4.13;;;1.75;;
48052;SDS011;33824;51.600;5.718;2023-05-20T05:06:28;3.85;;;1.70;;
48052;SDS011;33824;51.600;5.718;2023-05-20T05:08:54;5.60;;;1.48;;
48052;SDS011;33824;51.600;5.718;2023-05-20T05:11:19;5.70;;;1.58;;
48052;SDS011;33824;51.600;5.718;2023-05-20T05:13:45;2.53;;;1.55;;
48052;SDS011;33824;51.600;5.718;2023-05-20T05:16:11;1.92;;;1.60;;
48052;SDS011;33824;51.600;5.718;2023-05-20T05:18:37;1.95;;;1.30;;
48052;SDS011;33824;51.600;5.718;2023-05-20T05:21:02;3.70;;;1.65;;
48052;SDS011;33824;51.600;5.718;2023-05-20T05:23:29;2.08;;;1.33;;
48052;SDS011;33824;51.600;5.718;2023-05-20T05:25:54;2.22;;;1.52;;
48052;SDS011;33824;51.600;5.718;2023-05-20T05:28:20;4.35;;;1.98;;
48052;SDS011;33824;51.600;5.718;2023-05-20T05:30:46;2.13;;;1.67;;
48052;SDS011;33824;51.600;5.718;2023-05-20T05:33:14;3.50;;;1.67;;
48052;SDS011;33824;51.600;5.718;2023-05-20T05:35:43;4.32;;;1.75;;
48052;SDS011;33824;51.600;5.718;2023-05-20T05:38:09;9.95;;;1.23;;
48052;SDS011;33824;51.600;5.718;2023-05-20T05:40:34;5.07;;;1.55;;
48052;SDS011;33824;51.600;5.718;2023-05-20T05:43:00;4.40;;;1.30;;
48052;SDS011;33824;51.600;5.718;2023-05-20T05:45:26;8.68;;;1.58;;
48052;SDS011;33824;51.600;5.718;2023-05-20T05:47:53;2.45;;;0.90;;
48052;SDS011;33824;51.600;5.718;2023-05-20T05:50:18;2.28;;;1.55;;
48052;SDS011;33824;51.600;5.718;2023-05-20T05:52:45;8.00;;;1.70;;
48052;SDS011;33824;51.600;5.718;2023-05-20T05:55:10;3.63;;;2.47;;
48052;SDS011;33824;51.600;5.718;2023-05-20T05:57:36;3.92;;;1.70;;
48052;SDS011;33824;51.600;5.718;2023-05-20T06:00:02;1.55;;;1.17;;
48052;SDS011;33824;51.600;5.718;2023-05-20T06:02:29;2.70;;;1.10;;
48052;SDS011;33824;51.600;5.718;2023-05-20T06:04:54;2.28;;;1.35;;
48052;SDS011;33824;51.600;5.718;2023-05-20T06:07:20;2.80;;;1.20;;
48052;SDS011;33824;51.600;5.718;2023-05-20T06:09:47;2.72;;;1.33;;
48052;SDS011;33824;51.600;5.718;2023-05-20T06:12:12;4.28;;;1.33;;
48052;SDS011;33824;51.600;5.718;2023-05-20T06:14:38;1.52;;;1.08;;
48052;SDS011;33824;51.600;5.718;2023-05-20T06:17:03;3.53;;;1.40;;
48052;SDS011;33824;51.600;5.718;2023-05-20T06:19:29;4.18;;;1.65;;
48052;SDS011;33824;51.600;5.718;2023-05-20T06:21:55;4.57;;;1.75;;
48052;SDS011;33824;51.600;5.718;2023-05-20T06:24:22;3.00;;;1.65;;
48052;SDS011;33824;51.600;5.718;2023-05-20T06:26:48;4.80;;;1.30;;
48052;SDS011;33824;51.600;5.718;2023-05-20T06:29:14;3.70;;;1.35;;
48052;SDS011;33824;51.600;5.718;2023-05-20T06:31:40;5.03;;;1.90;;
48052;SDS011;33824;51.600;5.718;2023-05-20T06:34:07;5.03;;;2.08;;
48052;SDS011;33824;51.600;5.718;2023-05-20T06:36:33;2.75;;;1.42;;
48052;SDS011;33824;51.600;5.718;2023-05-20T06:38:58;4.05;;;1.73;;
48052;SDS011;33824;51.600;5.718;2023-05-20T06:41:24;5.70;;;1.20;;
48052;SDS011;33824;51.600;5.718;2023-05-20T06:43:50;2.20;;;1.77;;
48052;SDS011;33824;51.600;5.718;2023-05-20T06:46:16;1.40;;;1.20;;
48052;SDS011;33824;51.600;5.718;2023-05-20T06:48:41;2.58;;;0.80;;
48052;SDS011;33824;51.600;5.718;2023-05-20T06:51:07;3.08;;;1.38;;
48052;SDS011;33824;51.600;5.718;2023-05-20T06:53:35;1.77;;;1.55;;
48052;SDS011;33824;51.600;5.718;2023-05-20T06:56:02;3.53;;;1.50;;
48052;SDS011;33824;51.600;5.718;2023-05-20T06:58:27;3.17;;;1.40;;
48052;SDS011;33824;51.600;5.718;2023-05-20T07:00:53;5.55;;;1.27;;
48052;SDS011;33824;51.600;5.718;2023-05-20T07:03:19;3.15;;;1.20;;
48052;SDS011;33824;51.600;5.718;2023-05-20T07:05:44;3.92;;;1.45;;
48052;SDS011;33824;51.600;5.718;2023-05-20T07:08:10;2.15;;;1.40;;
48052;SDS011;33824;51.600;5.718;2023-05-20T07:10:36;1.75;;;0.98;;
48052;SDS011;33824;51.600;5.718;2023-05-20T07:13:01;2.67;;;1.10;;
48052;SDS011;33824;51.600;5.718;2023-05-20T07:15:27;2.83;;;1.33;;
48052;SDS011;33824;51.600;5.718;2023-05-20T07:17:53;1.73;;;0.98;;
48052;SDS011;33824;51.600;5.718;2023-05-20T07:20:18;4.88;;;1.42;;
48052;SDS011;33824;51.600;5.718;2023-05-20T07:22:44;1.67;;;1.10;;
48052;SDS011;33824;51.600;5.718;2023-05-20T07:25:10;2.08;;;1.40;;
48052;SDS011;33824;51.600;5.718;2023-05-20T07:27:36;4.50;;;1.15;;
48052;SDS011;33824;51.600;5.718;2023-05-20T07:30:02;2.65;;;1.10;;
48052;SDS011;33824;51.600;5.718;2023-05-20T07:32:27;1.75;;;1.23;;
48052;SDS011;33824;51.600;5.718;2023-05-20T07:34:55;2.50;;;1.08;;
48052;SDS011;33824;51.600;5.718;2023-05-20T07:37:20;2.92;;;1.35;;
48052;SDS011;33824;51.600;5.718;2023-05-20T07:39:46;1.25;;;0.85;;
48052;SDS011;33824;51.600;5.718;2023-05-20T07:42:12;2.13;;;1.27;;
48052;SDS011;33824;51.600;5.718;2023-05-20T07:44:37;3.17;;;1.48;;
48052;SDS011;33824;51.600;5.718;2023-05-20T07:47:03;3.03;;;1.30;;
48052;SDS011;33824;51.600;5.718;2023-05-20T07:49:29;1.88;;;1.00;;
48052;SDS011;33824;51.600;5.718;2023-05-20T07:51:54;1.42;;;1.10;;
48052;SDS011;33824;51.600;5.718;2023-05-20T07:54:21;3.42;;;1.48;;
48052;SDS011;33824;51.600;5.718;2023-05-20T07:56:47;2.03;;;0.95;;
48052;SDS011;33824;51.600;5.718;2023-05-20T07:59:13;0.95;;;0.65;;
48052;SDS011;33824;51.600;5.718;2023-05-20T08:01:40;2.85;;;1.45;;
48052;SDS011;33824;51.600;5.718;2023-05-20T08:04:06;4.18;;;1.42;;
48052;SDS011;33824;51.600;5.718;2023-05-20T08:06:31;2.25;;;1.10;;
48052;SDS011;33824;51.600;5.718;2023-05-20T08:08:57;2.80;;;1.40;;
48052;SDS011;33824;51.600;5.718;2023-05-20T08:11:23;1.23;;;0.90;;
48052;SDS011;33824;51.600;5.718;2023-05-20T08:13:48;3.28;;;0.90;;
48052;SDS011;33824;51.600;5.718;2023-05-20T08:16:14;3.10;;;1.15;;
48052;SDS011;33824;51.600;5.718;2023-05-20T08:18:40;1.98;;;1.17;;
48052;SDS011;33824;51.600;5.718;2023-05-20T08:21:06;2.22;;;1.00;;
48052;SDS011;33824;51.600;5.718;2023-05-20T08:23:35;4.32;;;0.93;;
48052;SDS011;33824;51.600;5.718;2023-05-20T08:26:01;2.50;;;1.45;;
48052;SDS011;33824;51.600;5.718;2023-05-20T08:28:28;1.63;;;1.10;;
48052;SDS011;33824;51.600;5.718;2023-05-20T08:30:54;2.08;;;1.30;;
48052;SDS011;33824;51.600;5.718;2023-05-20T08:33:20;4.53;;;1.52;;
48052;SDS011;33824;51.600;5.718;2023-05-20T08:35:46;1.90;;;1.25;;
48052;SDS011;33824;51.600;5.718;2023-05-20T08:38:13;1.17;;;0.93;;
48052;SDS011;33824;51.600;5.718;2023-05-20T08:40:38;2.17;;;0.98;;
48052;SDS011;33824;51.600;5.718;2023-05-20T08:43:04;2.38;;;1.20;;
48052;SDS011;33824;51.600;5.718;2023-05-20T08:45:30;1.30;;;1.10;;
48052;SDS011;33824;51.600;5.718;2023-05-20T08:47:58;1.75;;;1.05;;
48052;SDS011;33824;51.600;5.718;2023-05-20T08:50:25;3.55;;;1.38;;
48052;SDS011;33824;51.600;5.718;2023-05-20T08:52:50;2.90;;;1.27;;
48052;SDS011;33824;51.600;5.718;2023-05-20T08:55:17;3.20;;;1.10;;
48052;SDS011;33824;51.600;5.718;2023-05-20T08:57:51;2.60;;;1.17;;
48052;SDS011;33824;51.600;5.718;2023-05-20T09:00:19;2.25;;;1.30;;
48052;SDS011;33824;51.600;5.718;2023-05-20T09:02:47;2.70;;;1.20;;
48052;SDS011;33824;51.600;5.718;2023-05-20T09:05:13;2.88;;;1.38;;
48052;SDS011;33824;51.600;5.718;2023-05-20T09:07:39;1.15;;;0.90;;
48052;SDS011;33824;51.600;5.718;2023-05-20T09:10:07;2.13;;;1.13;;
48052;SDS011;33824;51.600;5.718;2023-05-20T09:12:34;2.13;;;1.08;;
48052;SDS011;33824;51.600;5.718;2023-05-20T09:14:59;1.98;;;1.20;;
48052;SDS011;33824;51.600;5.718;2023-05-20T09:17:25;2.40;;;0.95;;
48052;SDS011;33824;51.600;5.718;2023-05-20T09:19:54;2.55;;;1.33;;
48052;SDS011;33824;51.600;5.718;2023-05-20T09:22:23;1.73;;;1.00;;
48052;SDS011;33824;51.600;5.718;2023-05-20T09:24:52;2.50;;;1.05;;
48052;SDS011;33824;51.600;5.718;2023-05-20T09:27:21;2.25;;;1.38;;
48052;SDS011;33824;51.600;5.718;2023-05-20T09:29:49;1.58;;;0.77;;
48052;SDS011;33824;51.600;5.718;2023-05-20T09:32:15;2.80;;;1.00;;
48052;SDS011;33824;51.600;5.718;2023-05-20T09:34:48;1.48;;;0.70;;
48052;SDS011;33824;51.600;5.718;2023-05-20T09:37:13;1.38;;;0.73;;
48052;SDS011;33824;51.600;5.718;2023-05-20T09:39:54;2.45;;;1.10;;
48052;SDS011;33824;51.600;5.718;2023-05-20T09:42:26;1.80;;;1.02;;
48052;SDS011;33824;51.600;5.718;2023-05-20T09:44:56;3.45;;;0.57;;
48052;SDS011;33824;51.600;5.718;2023-05-20T09:47:22;1.73;;;0.90;;
48052;SDS011;33824;51.600;5.718;2023-05-20T09:49:51;0.98;;;0.70;;
48052;SDS011;33824;51.600;5.718;2023-05-20T09:52:18;1.60;;;0.95;;
48052;SDS011;33824;51.600;5.718;2023-05-20T09:54:44;1.10;;;0.70;;
48052;SDS011;33824;51.600;5.718;2023-05-20T09:57:11;2.22;;;0.80;;
48052;SDS011;33824;51.600;5.718;2023-05-20T09:59:37;2.13;;;1.20;;
48052;SDS011;33824;51.600;5.718;2023-05-20T10:02:05;3.33;;;1.17;;
48052;SDS011;33824;51.600;5.718;2023-05-20T10:04:31;2.65;;;1.05;;
48052;SDS011;33824;51.600;5.718;2023-05-20T10:07:04;2.13;;;1.10;;
48052;SDS011;33824;51.600;5.718;2023-05-20T10:09:40;1.30;;;0.90;;
48052;SDS011;33824;51.600;5.718;2023-05-20T10:17:24;1.15;;;0.75;;
48052;SDS011;33824;51.600;5.718;2023-05-20T10:19:59;2.72;;;1.50;;
48052;SDS011;33824;51.600;5.718;2023-05-20T10:22:27;1.63;;;0.88;;
48052;SDS011;33824;51.600;5.718;2023-05-20T10:24:57;1.98;;;1.20;;
48052;SDS011;33824;51.600;5.718;2023-05-20T10:27:24;1.80;;;1.03;;
48052;SDS011;33824;51.600;5.718;2023-05-20T10:29:51;1.98;;;1.05;;
48052;SDS011;33824;51.600;5.718;2023-05-20T10:32:29;1.02;;;0.82;;
48052;SDS011;33824;51.600;5.718;2023-05-20T10:34:59;1.58;;;1.00;;
48052;SDS011;33824;51.600;5.718;2023-05-20T10:37:31;1.58;;;1.08;;
48052;SDS011;33824;51.600;5.718;2023-05-20T10:40:18;2.22;;;1.23;;
48052;SDS011;33824;51.600;5.718;2023-05-20T10:42:45;3.13;;;1.13;;
48052;SDS011;33824;51.600;5.718;2023-05-20T10:45:23;2.85;;;1.42;;
48052;SDS011;33824;51.600;5.718;2023-05-20T10:47:54;1.40;;;1.05;;
48052;SDS011;33824;51.600;5.718;2023-05-20T10:52:54;1.52;;;0.90;;
48052;SDS011;33824;51.600;5.718;2023-05-20T10:55:33;1.63;;;0.93;;
48052;SDS011;33824;51.600;5.718;2023-05-20T10:58:01;2.30;;;1.13;;
48052;SDS011;33824;51.600;5.718;2023-05-20T11:00:27;2.03;;;1.25;;
48052;SDS011;33824;51.600;5.718;2023-05-20T11:02:53;1.20;;;0.75;;
48052;SDS011;33824;51.600;5.718;2023-05-20T11:05:20;1.50;;;0.90;;
48052;SDS011;33824;51.600;5.718;2023-05-20T11:07:46;1.67;;;1.00;;
48052;SDS011;33824;51.600;5.718;2023-05-20T11:10:11;2.17;;;0.93;;
48052;SDS011;33824;51.600;5.718;2023-05-20T11:12:37;1.85;;;0.90;;
48052;SDS011;33824;51.600;5.718;2023-05-20T11:15:03;3.45;;;1.10;;
48052;SDS011;33824;51.600;5.718;2023-05-20T11:17:29;1.45;;;0.70;;
48052;SDS011;33824;51.600;5.718;2023-05-20T11:19:55;0.85;;;0.70;;
48052;SDS011;33824;51.600;5.718;2023-05-20T11:22:21;0.73;;;0.60;;
48052;SDS011;33824;51.600;5.718;2023-05-20T11:24:46;1.98;;;0.98;;
48052;SDS011;33824;51.600;5.718;2023-05-20T11:27:12;0.90;;;0.77;;
48052;SDS011;33824;51.600;5.718;2023-05-20T11:29:38;2.67;;;1.02;;
48052;SDS011;33824;51.600;5.718;2023-05-20T11:32:04;1.20;;;0.90;;
48052;SDS011;33824;51.600;5.718;2023-05-20T11:34:33;2.55;;;1.17;;
48052;SDS011;33824;51.600;5.718;2023-05-20T11:36:59;1.65;;;0.85;;
48052;SDS011;33824;51.600;5.718;2023-05-20T11:39:28;2.60;;;1.02;;
48052;SDS011;33824;51.600;5.718;2023-05-20T11:41:54;2.53;;;1.20;;
48052;SDS011;33824;51.600;5.718;2023-05-20T11:44:20;2.92;;;1.10;;
48052;SDS011;33824;51.600;5.718;2023-05-20T11:46:46;1.95;;;0.98;;
48052;SDS011;33824;51.600;5.718;2023-05-20T11:49:12;1.00;;;0.60;;
48052;SDS011;33824;51.600;5.718;2023-05-20T11:51:39;1.20;;;0.90;;
48052;SDS011;33824;51.600;5.718;2023-05-20T11:54:05;4.13;;;1.10;;
48052;SDS011;33824;51.600;5.718;2023-05-20T11:56:32;2.15;;;0.90;;
48052;SDS011;33824;51.600;5.718;2023-05-20T11:59:00;1.48;;;0.98;;
48052;SDS011;33824;51.600;5.718;2023-05-20T12:01:37;6.05;;;0.85;;
48052;SDS011;33824;51.600;5.718;2023-05-20T12:04:07;3.13;;;1.25;;
48052;SDS011;33824;51.600;5.718;2023-05-20T12:06:33;2.10;;;0.93;;
48052;SDS011;33824;51.600;5.718;2023-05-20T12:09:00;1.90;;;1.30;;
48052;SDS011;33824;51.600;5.718;2023-05-20T12:11:37;1.65;;;0.70;;
48052;SDS011;33824;51.600;5.718;2023-05-20T12:14:05;1.05;;;0.80;;
48052;SDS011;33824;51.600;5.718;2023-05-20T12:16:32;1.98;;;1.08;;
48052;SDS011;33824;51.600;5.718;2023-05-20T12:18:59;2.70;;;1.00;;
48052;SDS011;33824;51.600;5.718;2023-05-20T12:21:25;2.28;;;1.00;;
48052;SDS011;33824;51.600;5.718;2023-05-20T12:23:53;2.03;;;1.45;;
48052;SDS011;33824;51.600;5.718;2023-05-20T12:26:25;1.63;;;1.10;;
48052;SDS011;33824;51.600;5.718;2023-05-20T12:28:52;2.20;;;0.77;;
48052;SDS011;33824;51.600;5.718;2023-05-20T12:31:18;6.80;;;1.20;;
48052;SDS011;33824;51.600;5.718;2023-05-20T12:33:44;1.70;;;0.80;;
48052;SDS011;33824;51.600;5.718;2023-05-20T12:36:10;2.15;;;1.00;;
48052;SDS011;33824;51.600;5.718;2023-05-20T12:38:35;1.55;;;1.02;;
48052;SDS011;33824;51.600;5.718;2023-05-20T12:41:01;1.85;;;0.98;;
48052;SDS011;33824;51.600;5.718;2023-05-20T12:43:26;2.15;;;1.10;;
48052;SDS011;33824;51.600;5.718;2023-05-20T12:45:52;2.83;;;1.02;;
48052;SDS011;33824;51.600;5.718;2023-05-20T12:48:18;4.18;;;1.10;;
48052;SDS011;33824;51.600;5.718;2023-05-20T12:50:44;3.63;;;0.90;;
48052;SDS011;33824;51.600;5.718;2023-05-20T12:53:09;3.38;;;1.10;;
48052;SDS011;33824;51.600;5.718;2023-05-20T12:55:35;2.95;;;1.52;;
48052;SDS011;33824;51.600;5.718;2023-05-20T12:58:00;2.13;;;1.10;;
48052;SDS011;33824;51.600;5.718;2023-05-20T13:00:26;1.50;;;0.80;;
48052;SDS011;33824;51.600;5.718;2023-05-20T13:02:51;2.20;;;0.70;;
48052;SDS011;33824;51.600;5.718;2023-05-20T13:05:17;1.25;;;0.93;;
48052;SDS011;33824;51.600;5.718;2023-05-20T13:07:44;1.27;;;0.88;;
48052;SDS011;33824;51.600;5.718;2023-05-20T13:10:10;1.55;;;0.70;;
48052;SDS011;33824;51.600;5.718;2023-05-20T13:12:36;1.80;;;1.13;;
48052;SDS011;33824;51.600;5.718;2023-05-20T13:15:02;1.08;;;0.73;;
48052;SDS011;33824;51.600;5.718;2023-05-20T13:17:28;1.30;;;0.80;;
48052;SDS011;33824;51.600;5.718;2023-05-20T13:19:54;3.05;;;0.90;;
48052;SDS011;33824;51.600;5.718;2023-05-20T13:22:19;2.03;;;0.95;;
48052;SDS011;33824;51.600;5.718;2023-05-20T13:24:45;1.23;;;0.85;;
48052;SDS011;33824;51.600;5.718;2023-05-20T13:27:10;2.53;;;1.08;;
48052;SDS011;33824;51.600;5.718;2023-05-20T13:29:36;2.45;;;0.88;;
48052;SDS011;33824;51.600;5.718;2023-05-20T13:32:02;1.98;;;1.00;;
48052;SDS011;33824;51.600;5.718;2023-05-20T13:34:28;1.00;;;0.63;;
48052;SDS011;33824;51.600;5.718;2023-05-20T13:36:54;1.23;;;0.73;;
48052;SDS011;33824;51.600;5.718;2023-05-20T13:39:20;3.85;;;0.85;;
48052;SDS011;33824;51.600;5.718;2023-05-20T13:41:46;1.50;;;0.73;;
48052;SDS011;33824;51.600;5.718;2023-05-20T13:44:11;5.00;;;0.85;;
48052;SDS011;33824;51.600;5.718;2023-05-20T13:46:37;1.55;;;1.00;;
48052;SDS011;33824;51.600;5.718;2023-05-20T13:49:03;1.63;;;1.08;;
48052;SDS011;33824;51.600;5.718;2023-05-20T13:51:29;1.10;;;0.80;;
48052;SDS011;33824;51.600;5.718;2023-05-20T13:53:55;1.95;;;1.00;;
48052;SDS011;33824;51.600;5.718;2023-05-20T13:56:21;3.35;;;0.90;;
48052;SDS011;33824;51.600;5.718;2023-05-20T13:58:47;1.60;;;1.08;;
48052;SDS011;33824;51.600;5.718;2023-05-20T14:01:12;1.15;;;0.70;;
48052;SDS011;33824;51.600;5.718;2023-05-20T14:03:39;1.30;;;0.90;;
48052;SDS011;33824;51.600;5.718;2023-05-20T14:06:06;1.63;;;1.05;;
48052;SDS011;33824;51.600;5.718;2023-05-20T14:08:32;0.90;;;0.80;;
48052;SDS011;33824;51.600;5.718;2023-05-20T14:10:57;2.03;;;1.05;;
48052;SDS011;33824;51.600;5.718;2023-05-20T14:13:23;1.63;;;1.00;;
48052;SDS011;33824;51.600;5.718;2023-05-20T14:15:49;1.50;;;0.98;;
48052;SDS011;33824;51.600;5.718;2023-05-20T14:18:16;1.20;;;0.70;;
48052;SDS011;33824;51.600;5.718;2023-05-20T14:20:42;2.00;;;1.10;;
48052;SDS011;33824;51.600;5.718;2023-05-20T14:23:08;1.40;;;0.90;;
48052;SDS011;33824;51.600;5.718;2023-05-20T14:25:34;1.30;;;0.73;;
48052;SDS011;33824;51.600;5.718;2023-05-20T14:28:00;1.17;;;0.80;;
48052;SDS011;33824;51.600;5.718;2023-05-20T14:30:25;1.70;;;1.08;;
48052;SDS011;33824;51.600;5.718;2023-05-20T14:32:51;1.30;;;0.90;;
48052;SDS011;33824;51.600;5.718;2023-05-20T14:35:16;2.15;;;0.88;;
48052;SDS011;33824;51.600;5.718;2023-05-20T14:37:42;0.82;;;0.60;;
48052;SDS011;33824;51.600;5.718;2023-05-20T14:40:08;1.98;;;0.80;;
48052;SDS011;33824;51.600;5.718;2023-05-20T14:42:35;1.92;;;1.00;;
48052;SDS011;33824;51.600;5.718;2023-05-20T14:45:01;1.30;;;0.80;;
48052;SDS011;33824;51.600;5.718;2023-05-20T14:47:26;0.75;;;0.52;;
48052;SDS011;33824;51.600;5.718;2023-05-20T14:49:52;1.58;;;0.73;;
48052;SDS011;33824;51.600;5.718;2023-05-20T14:52:18;1.75;;;1.00;;